Bogata, Texas
Current Conditions -  °F | °C
As of 3:35 PM on Friday 24 Oct 2014 (Local Time) from KPRX Reporting Station
Clear Clear  
Wind Chill: 79°   Ceiling: Unl
Heat Index: 80°   Visibility: 10mi
Dew Point: 57°   Wind: 3mph
Humidity: 47%   Direction: 200°SSW
Pressure: 30.1"   Gusts: NA
Location:  33.47°N, 95.21°W
Report Text: KPRX 242035Z 20003KT 10SM CLR 26/14 A3010 RMK AO1
Loading
Personal Weather Stations






























Interactive Weather Map
Tropical Storm Tracking
New forecast layout! Learn more

10-Day Weather Forecast

Advertisements
Track Severe Weather on mobile